Henryetta, Oklahoma
Current Conditions -  °F | °C
As of 2:55 PM on Friday 31 Oct 2014 (Local Time) from KOKM Reporting Station
Clear Clear  
Wind Chill: 54°   Ceiling: Unl
Heat Index: 54°   Visibility: 10mi
Dew Point: 28°   Wind: 15mph
Humidity: 37%   Direction: 350°N
Pressure: 30.36"   Gusts: 24mph
Location:  35.44°N, 95.98°W
Report Text: KOKM 311955Z AUTO 35013G21KT 10SM CLR 12/M02 A3036 RMK AO2 T01201022
Loading
Personal Weather Stations






























Interactive Weather Map
Tropical Storm Tracking
New forecast layout! Learn more

10-Day Weather Forecast

Advertisements
Track Severe Weather on mobile